Terminal Aerodrome Forecast
Issued by NWS

Home | Current Version | Previous Version | Text Only | Print | Product List | Glossary On
Versions: 1 2 3 4 5 6 7 8 9 10 11 12 13 14 15 16 17 18 19 20 21 22 23 24 25
000
FTUS46 KPQR 300535
TAFONP
TAF
KONP 300535Z 3006/3106 VRB03KT 6SM BR SKC
     FM301100 05002KT 4SM BR SCT010
     FM301900 05008KT P6SM SKC
     FM310000 35008KT P6SM SKC=

USA.gov is the U.S. government's official web portal to all federal, state and local government web resources and services.